createdAt,value
2018-09-18T00:03:39.177Z,64
2018-09-18T00:09:03.995Z,64
2018-09-18T00:14:33.850Z,64
2018-09-18T00:20:03.595Z,64
2018-09-18T00:25:39.666Z,64
2018-09-18T00:31:05.217Z,64
2018-09-18T00:36:41.097Z,64
2018-09-18T00:42:05.953Z,64
2018-09-18T00:47:35.850Z,64
2018-09-18T00:53:06.462Z,64
2018-09-18T00:58:36.174Z,63
2018-09-18T01:04:12.551Z,63
2018-09-18T01:09:42.807Z,63
2018-09-18T01:15:08.923Z,63
2018-09-18T01:20:43.667Z,63
2018-09-18T01:26:14.447Z,63
2018-09-18T01:31:39.256Z,63
2018-09-18T01:37:08.773Z,63
2018-09-18T01:42:40.082Z,63
2018-09-18T01:48:09.344Z,63
2018-09-18T01:53:39.123Z,63
2018-09-18T01:59:13.988Z,63
2018-09-18T02:04:38.723Z,63
2018-09-18T02:10:08.471Z,63
2018-09-18T02:15:38.527Z,63
2018-09-18T02:21:09.337Z,63
2018-09-18T02:26:38.857Z,63
2018-09-18T02:32:09.637Z,63
2018-09-18T02:37:44.555Z,63
2018-09-18T02:43:15.217Z,63
2018-09-18T02:48:45.020Z,63
2018-09-18T02:54:11.344Z,62
2018-09-18T02:59:40.551Z,62
2018-09-18T03:05:10.370Z,62
2018-09-18T03:10:46.191Z,62
2018-09-18T03:16:10.907Z,62
2018-09-18T03:21:40.682Z,62
2018-09-18T03:27:10.488Z,62
2018-09-18T03:32:40.667Z,62
2018-09-18T03:38:11.012Z,62
2018-09-18T03:43:46.960Z,62
2018-09-18T03:49:12.831Z,62
2018-09-18T03:54:43.648Z,62
2018-09-18T04:00:13.111Z,62
2018-09-18T04:05:43.006Z,62
2018-09-18T04:11:13.704Z,62
2018-09-18T04:16:43.540Z,62
2018-09-18T04:22:18.544Z,62
2018-09-18T04:27:44.015Z,62
2018-09-18T04:33:13.898Z,62
2018-09-18T04:38:44.592Z,62
2018-09-18T04:44:21.774Z,62
2018-09-18T04:49:49.124Z,61
2018-09-18T04:55:14.951Z,61
2018-09-18T05:00:44.747Z,61
2018-09-18T05:06:15.662Z,61
2018-09-18T05:11:45.165Z,61
2018-09-18T05:17:16.241Z,61
2018-09-18T05:22:45.756Z,61
2018-09-18T05:28:16.881Z,61
2018-09-18T05:33:51.629Z,61
2018-09-18T05:39:16.289Z,61
2018-09-18T05:44:46.285Z,61
2018-09-18T05:50:17.002Z,61
2018-09-18T05:55:46.364Z,61
2018-09-18T06:01:22.122Z,61
2018-09-18T06:06:51.955Z,61
2018-09-18T06:12:16.661Z,61
2018-09-18T06:17:46.413Z,61
2018-09-18T06:23:17.344Z,61
2018-09-18T06:28:47.236Z,61
2018-09-18T06:34:16.855Z,61
2018-09-18T06:39:51.579Z,61
2018-09-18T06:45:17.292Z,61
2018-09-18T06:50:47.355Z,61
2018-09-18T06:56:21.882Z,61
2018-09-18T07:01:46.916Z,61
2018-09-18T07:07:21.436Z,61
2018-09-18T07:12:47.598Z,61
2018-09-18T07:18:17.946Z,61
2018-09-18T07:23:52.952Z,61
2018-09-18T07:29:17.530Z,61
2018-09-18T07:34:47.208Z,61
2018-09-18T07:40:17.212Z,61
2018-09-18T07:45:47.165Z,61
2018-09-18T07:51:21.842Z,61
2018-09-18T07:56:47.249Z,61
2018-09-18T08:02:22.014Z,61
2018-09-18T08:07:47.784Z,61
2018-09-18T08:13:17.529Z,61
2018-09-18T08:18:47.595Z,61
2018-09-18T08:24:17.075Z,61
2018-09-18T08:29:46.834Z,62
2018-09-18T08:35:22.617Z,62
2018-09-18T08:40:48.353Z,62
2018-09-18T08:46:18.401Z,62
2018-09-18T08:51:48.272Z,62
2018-09-18T08:57:17.691Z,62
2018-09-18T09:02:47.436Z,62
2018-09-18T09:08:18.383Z,62
2018-09-18T09:13:50.356Z,62
2018-09-18T09:19:19.142Z,62
2018-09-18T09:24:54.011Z,62
2018-09-18T09:30:18.835Z,62
2018-09-18T09:35:49.031Z,62
2018-09-18T09:41:23.831Z,62
2018-09-18T09:46:48.680Z,62
2018-09-18T09:52:19.367Z,62
2018-09-18T09:57:49.914Z,62
2018-09-18T10:03:25.002Z,62
2018-09-18T10:08:50.676Z,62
2018-09-18T10:14:21.972Z,62
2018-09-18T10:19:57.528Z,62
2018-09-18T10:30:54.235Z,62
2018-09-18T10:36:22.820Z,62
2018-09-18T10:41:52.666Z,62
2018-09-18T10:47:23.382Z,62
2018-09-18T10:52:58.928Z,62
2018-09-18T10:58:23.699Z,62
2018-09-18T11:03:54.781Z,62
2018-09-18T11:09:29.318Z,62
2018-09-18T11:14:55.459Z,62
2018-09-18T11:20:26.177Z,62
2018-09-18T11:26:01.905Z,63
2018-09-18T11:31:27.491Z,63
2018-09-18T11:37:02.245Z,63
2018-09-18T11:42:27.205Z,63
2018-09-18T11:47:58.514Z,63
2018-09-18T11:53:32.507Z,63
2018-09-18T11:58:57.287Z,63
2018-09-18T12:04:28.387Z,63
2018-09-18T12:10:03.918Z,63
2018-09-18T12:15:29.759Z,63
2018-09-18T12:21:05.411Z,63
2018-09-18T12:26:29.424Z,64
2018-09-18T12:32:00.446Z,64
2018-09-18T12:37:31.152Z,64
2018-09-18T12:43:01.810Z,64
2018-09-18T12:54:02.375Z,64
2018-09-18T12:59:33.635Z,64
2018-09-18T13:05:02.870Z,64
2018-09-18T13:10:38.025Z,65
2018-09-18T13:17:56.659Z,65
2018-09-18T13:21:35.240Z,65
2018-09-18T13:27:03.071Z,65
2018-09-18T13:32:33.570Z,65
2018-09-18T13:38:03.705Z,65
2018-09-18T13:43:38.745Z,65
2018-09-18T13:49:04.972Z,65
2018-09-18T13:54:41.702Z,65
2018-09-18T14:00:06.153Z,66
2018-09-18T14:05:37.245Z,66
2018-09-18T14:11:13.869Z,66
2018-09-18T14:16:40.515Z,66
2018-09-18T14:22:17.981Z,66
2018-09-18T14:33:10.485Z,66
2018-09-18T14:38:42.062Z,66
2018-09-18T14:44:16.133Z,66
2018-09-18T14:49:41.768Z,66
2018-09-18T14:55:12.079Z,67
2018-09-18T15:00:42.561Z,67
2018-09-18T15:06:17.365Z,67
2018-09-18T15:11:42.304Z,67
2018-09-18T15:17:13.120Z,67
2018-09-18T15:22:44.327Z,67
2018-09-18T15:28:13.899Z,67
2018-09-18T15:33:44.098Z,67
2018-09-18T15:39:13.672Z,67
2018-09-18T15:44:43.547Z,67
2018-09-18T15:50:15.426Z,67
2018-09-18T15:55:45.709Z,67
2018-09-18T16:01:21.266Z,67
2018-09-18T16:06:47.119Z,68
2018-09-18T16:12:22.123Z,68
2018-09-18T16:17:47.913Z,68
2018-09-18T16:23:18.851Z,68
2018-09-18T16:28:48.960Z,68
2018-09-18T16:34:18.572Z,68
2018-09-18T16:39:53.463Z,68
2018-09-18T16:45:18.658Z,68
2018-09-18T16:50:53.222Z,68
2018-09-18T16:56:19.197Z,68
2018-09-18T17:01:49.034Z,68
2018-09-18T17:07:24.094Z,68
2018-09-18T17:12:50.075Z,68
2018-09-18T17:18:25.004Z,68
2018-09-18T17:23:49.586Z,68
2018-09-18T17:29:25.858Z,68
2018-09-18T17:34:50.917Z,68
2018-09-18T17:45:56.467Z,68
2018-09-18T17:51:21.578Z,68
2018-09-18T17:56:52.296Z,68
2018-09-18T18:02:22.158Z,68
2018-09-18T18:07:52.469Z,68
2018-09-18T18:13:21.763Z,68
2018-09-18T18:18:53.359Z,68
2018-09-18T18:24:27.438Z,68
2018-09-18T18:29:58.622Z,68
2018-09-18T18:35:28.516Z,68
2018-09-18T18:40:53.532Z,68
2018-09-18T18:46:28.283Z,68
2018-09-18T18:51:53.834Z,68
2018-09-18T18:57:24.982Z,68
2018-09-18T19:02:55.629Z,68
2018-09-18T19:08:25.518Z,68
2018-09-18T19:13:56.674Z,68
2018-09-18T19:19:32.675Z,68
2018-09-18T19:24:58.155Z,68
2018-09-18T19:30:28.118Z,68
2018-09-18T19:35:58.322Z,68
2018-09-18T19:41:27.859Z,68
2018-09-18T19:47:02.704Z,68
2018-09-18T19:52:32.873Z,68
2018-09-18T19:58:03.476Z,68
2018-09-18T20:03:34.339Z,68
2018-09-18T20:09:04.276Z,68
2018-09-18T20:14:35.116Z,68
2018-09-18T20:19:59.983Z,68
2018-09-18T20:25:35.166Z,68
2018-09-18T20:30:59.757Z,68
2018-09-18T20:36:30.631Z,68
2018-09-18T20:42:07.157Z,68
2018-09-18T20:47:31.373Z,68
2018-09-18T20:53:06.317Z,67
2018-09-18T20:58:31.166Z,67
2018-09-18T21:04:01.045Z,67
2018-09-18T21:09:32.227Z,67
2018-09-18T21:15:01.924Z,67
2018-09-18T21:20:36.718Z,67
2018-09-18T21:26:02.249Z,67
2018-09-18T21:31:37.485Z,67
2018-09-18T21:37:08.902Z,67
2018-09-18T21:42:33.476Z,67
2018-09-18T21:48:03.373Z,67
2018-09-18T21:53:33.230Z,67
2018-09-18T21:59:04.140Z,67
2018-09-18T22:04:35.183Z,67
2018-09-18T22:10:05.582Z,67
2018-09-18T22:15:37.108Z,67
2018-09-18T22:21:07.341Z,67
2018-09-18T22:26:37.201Z,67
2018-09-18T22:32:13.061Z,67
2018-09-18T22:37:38.940Z,67
2018-09-18T22:43:09.201Z,67
2018-09-18T22:48:39.377Z,67
2018-09-18T22:54:09.662Z,67
2018-09-18T22:59:39.481Z,67
2018-09-18T23:05:10.329Z,67
2018-09-18T23:10:41.296Z,67
2018-09-18T23:16:12.051Z,67
2018-09-18T23:21:46.926Z,67
2018-09-18T23:27:11.755Z,67
2018-09-18T23:32:42.658Z,67
2018-09-18T23:38:12.716Z,67
2018-09-18T23:43:49.364Z,67
2018-09-18T23:49:13.404Z,67
2018-09-18T23:54:43.324Z,67
